createdAt,value
2023-02-08T00:01:57.520Z,13.55
2023-02-08T00:04:25.393Z,11.90
2023-02-08T00:06:51.941Z,11.80
2023-02-08T00:09:18.410Z,11.35
2023-02-08T00:11:44.870Z,11.32
2023-02-08T00:14:11.502Z,11.40
2023-02-08T00:16:38.060Z,10.80
2023-02-08T00:19:04.497Z,11.18
2023-02-08T00:21:32.314Z,10.82
2023-02-08T00:23:58.868Z,10.18
2023-02-08T00:26:25.439Z,11.48
2023-02-08T00:28:52.006Z,11.48
2023-02-08T00:31:18.493Z,11.57
2023-02-08T00:33:45.023Z,10.80
2023-02-08T00:36:11.942Z,11.57
2023-02-08T00:38:39.871Z,11.38
2023-02-08T00:41:06.428Z,11.88
2023-02-08T00:43:32.938Z,11.25
2023-02-08T00:46:00.148Z,9.50
2023-02-08T00:48:27.086Z,11.20
2023-02-08T00:50:57.335Z,10.93
2023-02-08T00:53:23.764Z,9.90
2023-02-08T00:55:52.391Z,10.23
2023-02-08T00:58:18.871Z,9.93
2023-02-08T01:00:45.398Z,9.63
2023-02-08T01:03:11.926Z,9.15
2023-02-08T01:05:38.425Z,9.82
2023-02-08T01:08:05.261Z,8.95
2023-02-08T01:10:33.996Z,9.13
2023-02-08T01:13:01.965Z,11.38
2023-02-08T01:15:28.581Z,12.45
2023-02-08T01:17:55.180Z,11.07
2023-02-08T01:20:21.792Z,10.02
2023-02-08T01:22:48.246Z,10.50
2023-02-08T01:25:14.976Z,9.75
2023-02-08T01:27:41.589Z,10.05
2023-02-08T01:30:10.338Z,9.60
2023-02-08T01:32:36.899Z,9.40
2023-02-08T01:35:03.671Z,9.35
2023-02-08T01:37:30.193Z,9.38
2023-02-08T01:39:56.638Z,8.75
2023-02-08T01:42:23.601Z,8.70
2023-02-08T01:45:08.813Z,8.27
2023-02-08T01:47:36.633Z,7.82
2023-02-08T01:50:03.155Z,7.57
2023-02-08T01:52:30.119Z,7.85
2023-02-08T01:54:58.475Z,7.97
2023-02-08T01:57:25.177Z,7.57
2023-02-08T01:59:52.943Z,7.70
2023-02-08T02:02:20.907Z,7.47
2023-02-08T02:04:49.510Z,11.55
2023-02-08T02:07:16.248Z,7.30
2023-02-08T02:09:46.746Z,7.03
2023-02-08T02:12:14.104Z,7.28
2023-02-08T02:14:41.614Z,6.75
2023-02-08T02:17:08.180Z,6.47
2023-02-08T02:19:40.180Z,6.40
2023-02-08T02:22:14.222Z,6.30
2023-02-08T02:25:00.171Z,6.85
2023-02-08T02:27:29.875Z,6.53
2023-02-08T02:30:20.515Z,6.15
2023-02-08T02:32:53.877Z,6.25
2023-02-08T02:35:27.430Z,6.15
2023-02-08T02:37:58.682Z,5.72
2023-02-08T02:40:29.204Z,5.93
2023-02-08T02:43:18.802Z,6.63
2023-02-08T02:45:48.410Z,6.07
2023-02-08T02:48:20.249Z,6.43
2023-02-08T02:50:49.184Z,6.22
2023-02-08T02:53:18.293Z,6.25
2023-02-08T02:55:47.849Z,5.85
2023-02-08T02:58:16.713Z,5.18
2023-02-08T03:00:43.436Z,5.55
2023-02-08T03:03:18.848Z,5.18
2023-02-08T03:05:46.854Z,5.43
2023-02-08T03:08:28.300Z,6.45
2023-02-08T03:11:15.448Z,5.50
2023-02-08T03:13:50.253Z,5.45
2023-02-08T03:16:18.703Z,5.28
2023-02-08T03:18:51.452Z,5.20
2023-02-08T03:21:24.693Z,5.82
2023-02-08T03:23:55.178Z,5.75
2023-02-08T03:26:24.178Z,5.82
2023-02-08T03:28:57.008Z,5.75
2023-02-08T03:31:27.742Z,5.72
2023-02-08T03:33:56.663Z,5.60
2023-02-08T03:36:26.172Z,5.88
2023-02-08T03:38:54.296Z,5.28
2023-02-08T03:41:22.922Z,6.47
2023-02-08T03:43:51.977Z,6.38
2023-02-08T03:46:21.168Z,6.03
2023-02-08T03:48:49.495Z,6.75
2023-02-08T03:51:16.854Z,6.45
2023-02-08T03:53:45.910Z,6.82
2023-02-08T03:56:15.589Z,6.75
2023-02-08T03:58:44.796Z,7.28
2023-02-08T04:01:13.863Z,6.57
2023-02-08T04:03:41.442Z,6.35
2023-02-08T04:06:07.985Z,6.63
2023-02-08T04:08:34.610Z,6.32
2023-02-08T04:11:02.650Z,6.78
2023-02-08T04:13:29.186Z,6.40
2023-02-08T04:15:55.621Z,6.05
2023-02-08T04:18:22.171Z,5.60
2023-02-08T04:20:48.663Z,5.93
2023-02-08T04:23:15.196Z,5.85
2023-02-08T04:25:41.684Z,5.82
2023-02-08T04:28:09.660Z,6.03
2023-02-08T04:30:36.182Z,6.10
2023-02-08T04:33:03.768Z,6.68
2023-02-08T04:35:30.467Z,6.07
2023-02-08T04:37:56.929Z,5.88
2023-02-08T04:40:23.476Z,5.90
2023-02-08T04:42:49.996Z,6.43
2023-02-08T04:45:18.008Z,5.78
2023-02-08T04:47:44.501Z,5.88
2023-02-08T04:50:11.039Z,5.60
2023-02-08T04:52:37.552Z,5.53
2023-02-08T04:55:04.280Z,5.70
2023-02-08T04:57:30.867Z,5.50
2023-02-08T04:59:59.998Z,5.63
2023-02-08T05:02:28.465Z,5.60
2023-02-08T05:04:55.033Z,5.28
2023-02-08T05:07:21.610Z,6.22
2023-02-08T05:09:48.149Z,6.97
2023-02-08T05:12:14.605Z,6.60
2023-02-08T05:14:41.117Z,7.18
2023-02-08T05:17:07.683Z,7.13
2023-02-08T05:19:35.513Z,6.53
2023-02-08T05:22:02.140Z,6.97
2023-02-08T05:24:28.648Z,6.72
2023-02-08T05:26:55.180Z,5.63
2023-02-08T05:29:23.124Z,5.38
2023-02-08T05:31:49.742Z,5.28
2023-02-08T05:34:16.276Z,5.85
2023-02-08T05:36:44.098Z,5.07
2023-02-08T05:39:10.582Z,5.53
2023-02-08T05:41:37.109Z,5.95
2023-02-08T05:44:03.568Z,6.93
2023-02-08T05:46:30.217Z,6.55
2023-02-08T05:48:56.734Z,6.45
2023-02-08T05:51:23.254Z,6.13
2023-02-08T05:53:51.131Z,6.28
2023-02-08T05:56:17.700Z,5.85
2023-02-08T05:58:44.204Z,5.78
2023-02-08T06:01:11.040Z,6.18
2023-02-08T06:03:37.643Z,6.28
2023-02-08T06:06:04.332Z,6.05
2023-02-08T06:08:30.853Z,6.45
2023-02-08T06:10:58.687Z,6.15
2023-02-08T06:13:25.136Z,7.00
2023-02-08T06:15:51.650Z,5.75
2023-02-08T06:18:18.161Z,6.38
2023-02-08T06:20:44.697Z,6.68
2023-02-08T06:23:11.216Z,6.32
2023-02-08T06:25:37.812Z,5.85
2023-02-08T06:28:06.887Z,6.30
2023-02-08T06:30:33.382Z,6.15
2023-02-08T06:32:59.872Z,6.25
2023-02-08T06:35:26.418Z,6.35
2023-02-08T06:37:53.057Z,6.25
2023-02-08T06:40:19.775Z,6.68
2023-02-08T06:42:46.761Z,7.38
2023-02-08T06:45:14.632Z,6.53
2023-02-08T06:47:41.172Z,7.43
2023-02-08T06:50:08.227Z,7.78
2023-02-08T06:52:34.893Z,7.90
2023-02-08T06:55:01.423Z,8.10
2023-02-08T06:57:27.945Z,8.35
2023-02-08T06:59:54.502Z,8.90
2023-02-08T07:02:22.575Z,8.90
2023-02-08T07:04:49.146Z,9.23
2023-02-08T07:07:16.662Z,10.05
2023-02-08T07:09:43.274Z,8.45
2023-02-08T07:12:10.329Z,8.85
2023-02-08T07:14:38.800Z,10.73
2023-02-08T07:17:05.427Z,10.48
2023-02-08T07:19:33.612Z,9.63
2023-02-08T07:22:08.351Z,12.70
2023-02-08T07:24:35.694Z,11.38
2023-02-08T07:27:02.913Z,10.18
2023-02-08T07:29:29.655Z,10.25
2023-02-08T07:31:56.255Z,11.18
2023-02-08T07:34:22.921Z,9.30
2023-02-08T07:36:50.877Z,9.50
2023-02-08T07:39:17.436Z,10.13
2023-02-08T07:41:44.038Z,11.30
2023-02-08T07:44:10.667Z,10.90
2023-02-08T07:46:37.258Z,11.27
2023-02-08T07:49:03.800Z,11.35
2023-02-08T07:51:30.484Z,10.57
2023-02-08T07:53:58.497Z,10.75
2023-02-08T07:56:25.122Z,11.40
2023-02-08T07:58:51.730Z,11.27
2023-02-08T08:01:22.992Z,13.07
2023-02-08T08:03:50.247Z,12.50
2023-02-08T08:06:16.927Z,13.32
2023-02-08T08:08:47.378Z,12.88
2023-02-08T08:11:15.822Z,13.32
2023-02-08T08:13:42.747Z,15.05
2023-02-08T08:16:09.419Z,15.38
2023-02-08T08:18:39.046Z,15.98
2023-02-08T08:21:06.148Z,15.80
2023-02-08T08:23:36.404Z,17.45
2023-02-08T08:26:06.938Z,17.60
2023-02-08T08:28:34.910Z,14.68
2023-02-08T08:31:01.641Z,15.13
2023-02-08T08:33:28.422Z,18.38
2023-02-08T08:35:54.977Z,16.60
2023-02-08T08:38:21.673Z,15.75
2023-02-08T08:40:48.267Z,14.25
2023-02-08T08:43:16.084Z,14.95
2023-02-08T08:45:44.213Z,13.00
2023-02-08T08:48:11.016Z,11.38
2023-02-08T08:50:39.407Z,10.85
2023-02-08T08:53:06.216Z,10.18
2023-02-08T08:55:32.823Z,10.32
2023-02-08T08:57:59.386Z,9.98
2023-02-08T09:00:26.016Z,9.70
2023-02-08T09:02:54.072Z,9.77
2023-02-08T09:05:20.682Z,9.40
2023-02-08T09:07:47.296Z,9.18
2023-02-08T09:10:13.927Z,9.52
2023-02-08T09:12:40.537Z,9.10
2023-02-08T09:15:07.536Z,7.82
2023-02-08T09:17:34.054Z,9.05
2023-02-08T09:20:04.667Z,8.50
2023-02-08T09:22:31.500Z,8.23
2023-02-08T09:24:58.201Z,8.02
2023-02-08T09:27:28.075Z,8.45
2023-02-08T09:29:54.649Z,8.45
2023-02-08T09:32:23.105Z,6.85
2023-02-08T09:34:49.659Z,6.82
2023-02-08T09:37:18.128Z,7.90
2023-02-08T09:39:45.189Z,8.35
2023-02-08T09:42:30.948Z,6.82
2023-02-08T09:45:18.530Z,7.70
2023-02-08T09:47:48.380Z,7.35
2023-02-08T09:50:18.092Z,6.70
2023-02-08T09:52:49.391Z,7.00
2023-02-08T09:55:21.388Z,7.38
2023-02-08T09:57:48.892Z,6.53
2023-02-08T10:00:19.112Z,6.65
2023-02-08T10:02:47.284Z,6.78
2023-02-08T10:05:17.040Z,7.55
2023-02-08T10:07:43.855Z,7.55
2023-02-08T11:16:07.825Z,5.63
2023-02-08T11:18:35.501Z,6.00
2023-02-08T11:21:02.847Z,5.38
2023-02-08T11:23:30.198Z,5.60
2023-02-08T11:26:15.356Z,5.85
2023-02-08T11:28:44.047Z,6.25
2023-02-08T11:31:16.256Z,5.90
2023-02-08T11:33:58.427Z,5.85
2023-02-08T11:36:24.902Z,5.65
2023-02-08T11:38:51.490Z,6.13
2023-02-08T11:41:19.578Z,7.13
2023-02-08T11:44:05.850Z,5.75
2023-02-08T11:57:12.933Z,6.07
2023-02-08T11:59:39.372Z,6.25
2023-02-08T12:02:24.638Z,6.07
2023-02-08T12:04:51.140Z,6.57
2023-02-08T12:07:20.928Z,6.72
2023-02-08T12:10:05.219Z,6.53
2023-02-08T12:12:39.850Z,6.25
2023-02-08T12:15:10.692Z,6.82
2023-02-08T12:17:46.278Z,6.70
2023-02-08T12:20:25.849Z,6.07
2023-02-08T12:22:57.419Z,6.45
2023-02-08T12:25:26.739Z,6.72
2023-02-08T12:27:58.911Z,6.95
2023-02-08T12:30:29.663Z,6.28
2023-02-08T12:33:10.991Z,6.40
2023-02-08T12:35:57.643Z,6.68
2023-02-08T12:38:57.665Z,6.22
2023-02-08T12:41:30.165Z,6.50
2023-02-08T12:44:02.446Z,6.35
2023-02-08T12:46:47.304Z,6.25
2023-02-08T12:51:46.781Z,5.95
2023-02-08T12:54:15.392Z,6.03
2023-02-08T12:56:53.566Z,5.82
2023-02-08T12:59:30.378Z,6.22
2023-02-08T13:01:59.999Z,6.20
2023-02-08T13:04:27.578Z,5.90
2023-02-08T13:06:57.167Z,6.35
2023-02-08T13:09:34.382Z,6.05
2023-02-08T13:12:04.486Z,6.05
2023-02-08T13:14:34.413Z,5.93
2023-02-08T13:17:05.108Z,5.85
2023-02-08T13:19:33.266Z,5.53
2023-02-08T13:22:00.110Z,5.95
2023-02-08T13:24:30.548Z,6.00
2023-02-08T13:26:56.979Z,5.45
2023-02-08T13:29:23.891Z,6.10
2023-02-08T13:31:55.177Z,5.95
2023-02-08T13:34:26.258Z,5.60
2023-02-08T13:36:55.805Z,5.47
2023-02-08T13:39:30.381Z,6.18
2023-02-08T13:41:57.087Z,6.32
2023-02-08T13:44:26.594Z,5.70
2023-02-08T13:46:55.060Z,5.35
2023-02-08T13:49:40.800Z,5.97
2023-02-08T13:52:07.564Z,5.82
2023-02-08T13:54:34.146Z,6.20
2023-02-08T13:57:00.939Z,5.45
2023-02-08T13:59:37.898Z,5.20
2023-02-08T14:02:22.344Z,5.70
2023-02-08T14:04:49.673Z,5.35
2023-02-08T14:07:20.402Z,5.65
2023-02-08T14:10:04.591Z,5.70
2023-02-08T14:15:14.453Z,6.13
2023-02-08T14:17:43.569Z,6.15
2023-02-08T14:20:19.185Z,5.38
2023-02-08T14:22:49.321Z,5.80
2023-02-08T14:25:18.181Z,5.75
2023-02-08T14:27:50.558Z,5.50
2023-02-08T14:30:20.832Z,6.07
2023-02-08T14:32:50.344Z,5.82
2023-02-08T14:35:20.647Z,5.53
2023-02-08T14:37:47.828Z,4.95
2023-02-08T14:40:31.655Z,5.70
2023-02-08T14:42:58.979Z,4.75
2023-02-08T14:45:29.307Z,4.75
2023-02-08T14:48:00.611Z,4.32
2023-02-08T14:50:32.632Z,5.03
2023-02-08T14:53:02.704Z,4.45
2023-02-08T14:55:31.794Z,4.43
2023-02-08T14:58:00.982Z,4.32
2023-02-08T15:00:29.043Z,4.47
2023-02-08T15:02:56.442Z,4.53
2023-02-08T15:05:25.315Z,5.50
2023-02-08T15:07:52.750Z,4.82
2023-02-08T15:10:20.030Z,4.80
2023-02-08T15:12:49.223Z,4.65
2023-02-08T15:15:22.564Z,4.13
2023-02-08T15:17:50.685Z,4.30
2023-02-08T15:20:18.739Z,4.80
2023-02-08T15:22:46.609Z,5.05
2023-02-08T15:25:24.080Z,5.10
2023-02-08T15:27:52.238Z,5.05
2023-02-08T15:30:39.487Z,4.70
2023-02-08T15:33:09.342Z,4.90
2023-02-08T15:35:36.329Z,5.05
2023-02-08T15:38:09.850Z,4.90
2023-02-08T15:40:36.352Z,4.82
2023-02-08T15:43:04.151Z,4.93
2023-02-08T15:45:30.843Z,4.97
2023-02-08T15:48:00.619Z,5.18
2023-02-08T15:50:27.844Z,5.60
2023-02-08T15:52:57.439Z,5.15
2023-02-08T15:55:26.630Z,4.80
2023-02-08T15:57:57.546Z,5.70
2023-02-08T16:00:24.935Z,4.70
2023-02-08T16:02:52.436Z,5.80
2023-02-08T16:05:20.164Z,5.82
2023-02-08T16:07:47.206Z,8.07
2023-02-08T16:10:29.128Z,7.68
2023-02-08T16:12:57.624Z,7.93
2023-02-08T16:15:40.736Z,7.93
2023-02-08T16:18:22.040Z,7.10
2023-02-08T16:20:56.720Z,6.97
2023-02-08T16:23:25.110Z,7.55
2023-02-08T16:25:53.144Z,6.75
2023-02-08T16:28:27.818Z,6.15
2023-02-08T16:30:54.910Z,8.73
2023-02-08T16:33:21.762Z,8.80
2023-02-08T16:35:49.434Z,8.88
2023-02-08T16:38:21.254Z,9.68
2023-02-08T16:40:51.753Z,9.60
2023-02-08T16:43:22.029Z,12.00
2023-02-08T16:46:03.407Z,12.25
2023-02-08T16:48:35.055Z,11.65
2023-02-08T16:51:02.106Z,10.30
2023-02-08T16:53:41.432Z,12.48
2023-02-08T16:56:08.887Z,10.48
2023-02-08T16:58:36.652Z,11.27
2023-02-08T17:01:03.399Z,9.73
2023-02-08T17:03:30.546Z,10.60
2023-02-08T17:06:00.042Z,9.50
2023-02-08T17:08:26.842Z,8.20
2023-02-08T17:10:58.772Z,8.60
2023-02-08T17:13:28.077Z,8.63
2023-02-08T17:15:58.387Z,8.30
2023-02-08T17:18:24.894Z,8.00
2023-02-08T17:20:57.806Z,8.63
2023-02-08T17:23:24.452Z,8.70
2023-02-08T17:25:50.965Z,9.48
2023-02-08T17:28:18.583Z,8.93
2023-02-08T17:30:45.461Z,8.50
2023-02-08T17:33:18.548Z,9.27
2023-02-08T17:35:46.608Z,9.43
2023-02-08T17:38:13.860Z,10.13
2023-02-08T17:40:40.313Z,11.55
2023-02-08T17:43:06.798Z,10.93
2023-02-08T17:45:36.457Z,11.05
2023-02-08T17:48:03.243Z,11.82
2023-02-08T17:50:31.285Z,11.93
2023-02-08T17:52:57.810Z,14.68
2023-02-08T17:55:24.908Z,13.40
2023-02-08T17:57:51.512Z,12.68
2023-02-08T18:00:19.313Z,13.32
2023-02-08T18:02:49.086Z,12.32
2023-02-08T18:05:16.040Z,11.57
2023-02-08T18:07:44.042Z,11.30
2023-02-08T18:10:11.158Z,10.93
2023-02-08T18:12:38.893Z,8.82
2023-02-08T18:15:05.986Z,9.95
2023-02-08T18:17:32.826Z,10.07
2023-02-08T18:19:59.342Z,8.90
2023-02-08T18:22:26.210Z,9.50
2023-02-08T18:24:55.204Z,11.80
2023-02-08T18:27:22.292Z,15.57
2023-02-08T18:29:48.840Z,12.73
2023-02-08T18:32:15.938Z,14.63
2023-02-08T18:34:43.058Z,13.25
2023-02-08T18:37:09.552Z,11.85
2023-02-08T18:39:35.945Z,10.88
2023-02-08T18:42:03.900Z,10.93
2023-02-08T18:44:30.376Z,11.85
2023-02-08T18:46:56.942Z,11.45
2023-02-08T18:49:23.809Z,11.32
2023-02-08T18:51:50.402Z,10.43
2023-02-08T18:54:17.899Z,10.52
2023-02-08T18:56:45.636Z,8.63
2023-02-08T18:59:13.540Z,10.63
2023-02-08T19:01:40.084Z,11.57
2023-02-08T19:04:06.706Z,11.40
2023-02-08T19:06:35.624Z,12.60
2023-02-08T19:09:03.764Z,11.70
2023-02-08T19:11:31.251Z,12.68
2023-02-08T19:13:58.836Z,10.85
2023-02-08T19:16:27.852Z,11.13
2023-02-08T19:18:56.390Z,9.10
2023-02-08T19:21:23.161Z,8.75
2023-02-08T19:23:53.830Z,9.63
2023-02-08T19:26:21.022Z,10.95
2023-02-08T19:28:47.896Z,10.30
2023-02-08T19:31:16.014Z,10.38
2023-02-08T19:33:45.259Z,9.18
2023-02-08T19:36:14.351Z,10.68
2023-02-08T19:38:41.405Z,10.45
2023-02-08T19:41:08.908Z,10.18
2023-02-08T19:43:36.054Z,10.00
2023-02-08T19:46:08.021Z,10.50
2023-02-08T19:48:34.754Z,10.30
2023-02-08T19:51:03.021Z,9.88
2023-02-08T19:53:30.090Z,10.40
2023-02-08T19:55:57.145Z,11.07
2023-02-08T19:58:23.834Z,11.70
2023-02-08T20:00:50.603Z,11.85
2023-02-08T20:03:21.937Z,13.15
2023-02-08T20:05:49.432Z,13.23
2023-02-08T20:08:18.200Z,13.43
2023-02-08T20:10:45.707Z,14.38
2023-02-08T20:13:13.583Z,16.10
2023-02-08T20:15:41.245Z,13.38
2023-02-08T20:18:08.627Z,13.20
2023-02-08T20:20:35.577Z,14.10
2023-02-08T20:23:06.994Z,17.40
2023-02-08T20:25:37.393Z,17.10
2023-02-08T20:28:04.116Z,13.27
2023-02-08T20:30:30.979Z,12.70
2023-02-08T20:32:59.119Z,11.35
2023-02-08T20:35:26.044Z,12.13
2023-02-08T20:37:52.652Z,11.45
2023-02-08T20:40:19.190Z,9.23
2023-02-08T20:42:47.137Z,7.95
2023-02-08T20:45:15.255Z,7.25
2023-02-08T20:47:46.603Z,7.90
2023-02-08T20:50:19.321Z,7.13
2023-02-08T20:52:46.952Z,7.00
2023-02-08T20:55:13.513Z,6.78
2023-02-08T20:57:39.986Z,7.03
2023-02-08T21:00:09.016Z,7.13
2023-02-08T21:02:35.558Z,6.35
2023-02-08T21:05:02.185Z,6.80
2023-02-08T21:07:28.737Z,7.43
2023-02-08T21:09:55.212Z,6.78
2023-02-08T21:12:21.660Z,6.95
2023-02-08T21:14:48.171Z,6.97
2023-02-08T21:17:16.114Z,6.95
2023-02-08T21:19:42.705Z,6.88
2023-02-08T21:22:09.620Z,6.80
2023-02-08T21:24:36.035Z,7.07
2023-02-08T21:27:02.574Z,7.10
2023-02-08T21:29:29.459Z,7.38
2023-02-08T21:31:57.528Z,6.82
2023-02-08T21:34:25.417Z,7.63
2023-02-08T21:36:51.976Z,6.80
2023-02-08T21:39:18.852Z,7.18
2023-02-08T21:41:45.313Z,7.63
2023-02-08T21:44:11.792Z,7.43
2023-02-08T21:46:38.284Z,7.88
2023-02-08T21:49:23.364Z,7.35
2023-02-08T21:52:10.003Z,7.80
2023-02-08T21:54:42.103Z,7.55
2023-02-08T21:57:09.633Z,7.20
2023-02-08T21:59:39.372Z,7.50
2023-02-08T22:02:07.271Z,8.40
2023-02-08T22:04:33.951Z,7.63
2023-02-08T22:07:02.248Z,7.82
2023-02-08T22:09:29.138Z,7.85
2023-02-08T22:14:24.987Z,7.70
2023-02-08T22:16:51.537Z,7.55
2023-02-08T22:19:18.076Z,8.85
2023-02-08T22:21:44.674Z,12.82
2023-02-08T22:24:12.751Z,7.97
2023-02-08T22:26:39.387Z,7.70
2023-02-08T22:29:05.923Z,8.93
2023-02-08T22:31:32.548Z,7.93
2023-02-08T22:33:59.255Z,7.85
2023-02-08T22:36:25.799Z,7.97
2023-02-08T22:38:52.338Z,8.35
2023-02-08T22:41:20.209Z,9.00
2023-02-08T22:43:46.742Z,8.23
2023-02-08T22:46:13.388Z,8.60
2023-02-08T22:48:40.391Z,9.65
2023-02-08T22:51:07.499Z,9.60
2023-02-08T22:53:33.995Z,9.63
2023-02-08T22:56:00.586Z,9.57
2023-02-08T22:58:28.643Z,9.50
2023-02-08T23:00:55.362Z,9.23
2023-02-08T23:03:21.956Z,9.52
2023-02-08T23:05:49.394Z,8.90
2023-02-08T23:08:16.690Z,9.40
2023-02-08T23:10:43.765Z,9.75
2023-02-08T23:13:11.005Z,9.57
2023-02-08T23:15:40.402Z,10.27
2023-02-08T23:18:10.170Z,8.50
2023-02-08T23:20:37.227Z,8.82
2023-02-08T23:23:04.124Z,9.50
2023-02-08T23:25:30.674Z,9.80
2023-02-08T23:27:57.256Z,9.45
2023-02-08T23:30:23.816Z,9.90
2023-02-08T23:32:51.623Z,10.05
2023-02-08T23:35:18.196Z,9.85
2023-02-08T23:37:44.733Z,10.35
2023-02-08T23:40:11.587Z,9.63
2023-02-08T23:42:38.222Z,9.75
2023-02-08T23:45:05.273Z,9.57
2023-02-08T23:47:31.995Z,9.13
2023-02-08T23:49:59.944Z,9.90
2023-02-08T23:52:26.616Z,9.50
2023-02-08T23:54:53.120Z,9.60
2023-02-08T23:57:19.696Z,9.45
2023-02-08T23:59:46.205Z,10.88
